createdAt,value
2018-05-25T00:00:27.238Z,2.90
2018-05-25T00:17:38.929Z,2.60
2018-05-25T00:20:07.130Z,2.33
2018-05-25T00:22:35.334Z,2.03
2018-05-25T00:25:03.535Z,1.93
2018-05-25T00:27:31.731Z,2.10
2018-05-25T00:29:59.932Z,1.90
2018-05-25T00:32:28.133Z,2.03
2018-05-25T00:34:56.334Z,2.10
2018-05-25T00:37:24.545Z,2.70
2018-05-25T00:39:51.985Z,2.57
2018-05-25T00:42:19.422Z,2.87
2018-05-25T00:44:46.862Z,2.50
2018-05-25T00:47:15.069Z,2.57
2018-05-25T00:49:43.265Z,2.60
2018-05-25T00:52:11.480Z,2.30
2018-05-25T00:54:38.913Z,2.30
2018-05-25T00:57:06.354Z,2.73
2018-05-25T00:59:33.803Z,2.70
2018-05-25T01:02:01.247Z,3.33
2018-05-25T01:04:28.695Z,2.87
2018-05-25T01:06:56.894Z,2.63
2018-05-25T01:09:24.331Z,1.80
2018-05-25T01:11:51.766Z,2.10
2018-05-25T01:14:19.214Z,3.97
2018-05-25T01:16:46.655Z,2.70
2018-05-25T01:19:14.085Z,2.60
2018-05-25T01:21:42.306Z,2.70
2018-05-25T01:24:10.514Z,2.40
2018-05-25T01:26:37.959Z,2.73
2018-05-25T01:29:05.391Z,2.70
2018-05-25T01:31:32.833Z,2.30
2018-05-25T01:34:00.272Z,2.67
2018-05-25T01:36:27.728Z,2.50
2018-05-25T01:38:55.915Z,2.50
2018-05-25T01:41:24.124Z,2.23
2018-05-25T01:43:52.330Z,2.53
2018-05-25T01:46:20.542Z,2.27
2018-05-25T01:48:47.982Z,2.47
2018-05-25T01:51:15.424Z,2.30
2018-05-25T01:53:42.868Z,2.20
2018-05-25T01:56:11.075Z,2.20
2018-05-25T01:58:38.514Z,2.03
2018-05-25T02:01:05.959Z,2.67
2018-05-25T02:03:33.397Z,2.37
2018-05-25T02:06:00.834Z,2.20
2018-05-25T02:08:28.275Z,2.70
2018-05-25T02:10:56.493Z,2.13
2018-05-25T02:13:23.926Z,1.93
2018-05-25T02:15:51.363Z,1.63
2018-05-25T02:42:52.572Z,2.10
2018-05-25T02:45:20.023Z,2.60
2018-05-25T02:47:47.466Z,2.80
2018-05-25T02:50:14.897Z,2.42
2018-05-25T02:52:42.342Z,2.80
2018-05-25T02:55:10.542Z,3.00
2018-05-25T02:57:38.756Z,2.30
2018-05-25T03:00:06.958Z,2.17
2018-05-25T03:02:35.170Z,2.33
2018-05-25T03:05:02.602Z,3.63
2018-05-25T03:07:30.051Z,2.27
2018-05-25T03:09:58.090Z,2.33
2018-05-25T03:12:25.530Z,2.17
2018-05-25T03:14:54.497Z,2.50
2018-05-25T03:17:21.928Z,2.30
2018-05-25T03:19:49.358Z,2.30
2018-05-25T03:22:16.797Z,2.20
2018-05-25T03:24:44.232Z,1.90
2018-05-25T03:27:11.674Z,1.90
2018-05-25T03:29:39.114Z,1.80
2018-05-25T03:32:06.558Z,2.00
2018-05-25T03:34:34.000Z,2.10
2018-05-25T03:37:02.458Z,1.63
2018-05-25T03:39:29.887Z,2.17
2018-05-25T03:41:58.091Z,2.20
2018-05-25T03:44:26.299Z,1.93
2018-05-25T03:46:53.751Z,1.93
2018-05-25T03:49:21.182Z,2.20
2018-05-25T03:51:48.625Z,1.60
2018-05-25T03:54:16.829Z,2.03
2018-05-25T03:56:45.041Z,2.07
2018-05-25T03:59:25.123Z,1.93
2018-05-25T04:01:58.022Z,2.10
2018-05-25T04:04:26.236Z,2.30
2018-05-25T04:06:53.675Z,2.40
2018-05-25T04:09:21.106Z,2.50
2018-05-25T04:11:48.538Z,2.50
2018-05-25T04:14:15.999Z,2.47
2018-05-25T04:16:43.422Z,1.90
2018-05-25T04:19:11.632Z,1.83
2018-05-25T04:21:39.071Z,2.20
2018-05-25T04:24:06.514Z,2.67
2018-05-25T04:26:33.955Z,2.37
2018-05-25T04:29:01.390Z,2.37
2018-05-25T04:31:28.822Z,2.43
2018-05-25T04:33:56.259Z,2.30
2018-05-25T04:36:23.700Z,2.70
2018-05-25T04:38:51.936Z,2.40
2018-05-25T04:41:19.348Z,2.47
2018-05-25T04:43:46.781Z,2.50
2018-05-25T04:46:17.279Z,2.77
2018-05-25T04:48:44.723Z,3.23
2018-05-25T04:51:12.164Z,4.30
2018-05-25T04:53:39.600Z,3.80
2018-05-25T04:56:07.039Z,3.70
2018-05-25T04:58:35.242Z,4.03
2018-05-25T05:01:03.446Z,3.83
2018-05-25T05:03:31.645Z,3.60
2018-05-25T05:08:26.841Z,3.70
2018-05-25T05:10:54.287Z,3.87
2018-05-25T05:13:22.503Z,4.00
2018-05-25T05:25:40.286Z,4.67
2018-05-25T05:28:08.482Z,5.00
2018-05-25T05:30:35.919Z,4.90
2018-05-25T05:33:03.358Z,6.10
2018-05-25T05:35:30.823Z,5.70
2018-05-25T05:37:58.258Z,5.30
2018-05-25T05:40:25.711Z,5.60
2018-05-25T05:42:53.143Z,5.50
2018-05-25T05:45:21.357Z,5.35
2018-05-25T05:47:48.802Z,5.50
2018-05-25T05:50:17.536Z,6.15
2018-05-25T05:52:45.755Z,6.00
2018-05-25T05:55:13.963Z,4.90
2018-05-25T05:57:41.406Z,4.70
2018-05-25T06:00:10.825Z,4.80
2018-05-25T06:02:38.259Z,5.28
2018-05-25T06:05:05.714Z,5.30
2018-05-25T06:07:33.913Z,5.53
2018-05-25T06:10:02.408Z,5.50
2018-05-25T06:12:29.942Z,5.78
2018-05-25T06:14:58.139Z,5.75
2018-05-25T06:17:25.591Z,6.10
2018-05-25T06:19:53.827Z,6.80
2018-05-25T06:22:21.258Z,7.37
2018-05-25T06:24:49.379Z,7.78
2018-05-25T06:27:17.588Z,8.95
2018-05-25T06:29:45.046Z,8.70
2018-05-25T06:32:12.487Z,9.32
2018-05-25T06:34:39.943Z,9.20
2018-05-25T06:37:07.381Z,9.60
2018-05-25T06:39:34.821Z,9.17
2018-05-25T06:42:02.270Z,11.18
2018-05-25T06:44:30.494Z,12.90
2018-05-25T06:46:57.960Z,12.23
2018-05-25T06:49:26.179Z,12.50
2018-05-25T06:51:53.640Z,11.65
2018-05-25T06:54:21.096Z,12.07
2018-05-25T06:56:48.535Z,12.90
2018-05-25T06:59:15.991Z,12.52
2018-05-25T07:01:43.437Z,12.67
2018-05-25T07:04:10.878Z,11.80
2018-05-25T07:06:38.330Z,11.43
2018-05-25T07:09:06.579Z,12.40
2018-05-25T07:11:34.042Z,11.50
2018-05-25T07:14:01.503Z,12.48
2018-05-25T07:16:29.728Z,12.70
2018-05-25T07:18:57.175Z,11.25
2018-05-25T07:21:24.639Z,11.70
2018-05-25T07:23:52.091Z,11.30
2018-05-25T07:26:19.539Z,10.93
2018-05-25T07:28:47.757Z,12.43
2018-05-25T07:31:15.202Z,12.05
2018-05-25T07:33:43.421Z,12.60
2018-05-25T07:36:11.522Z,14.23
2018-05-25T07:38:39.718Z,12.13
2018-05-25T07:41:07.182Z,12.30
2018-05-25T07:43:35.407Z,10.57
2018-05-25T07:46:02.868Z,9.30
2018-05-25T07:48:31.065Z,9.20
2018-05-25T07:50:59.271Z,9.37
2018-05-25T07:53:27.475Z,9.73
2018-05-25T07:55:55.683Z,8.90
2018-05-25T07:58:23.113Z,8.90
2018-05-25T08:00:50.563Z,8.52
2018-05-25T08:03:18.021Z,8.57
2018-05-25T08:05:45.482Z,7.90
2018-05-25T08:08:16.644Z,7.60
2018-05-25T08:10:44.079Z,6.05
2018-05-25T08:13:11.527Z,6.78
2018-05-25T08:15:39.736Z,6.03
2018-05-25T08:18:07.931Z,6.37
2018-05-25T08:20:36.162Z,6.87
2018-05-25T08:23:03.621Z,6.40
2018-05-25T08:25:31.066Z,6.60
2018-05-25T08:27:58.503Z,6.68
2018-05-25T08:30:25.946Z,6.70
2018-05-25T08:32:53.390Z,6.30
2018-05-25T08:35:20.849Z,6.10
2018-05-25T08:37:48.288Z,5.70
2018-05-25T08:40:16.008Z,5.17
2018-05-25T08:42:44.206Z,4.80
2018-05-25T08:45:12.761Z,5.20
2018-05-25T08:47:40.191Z,4.85
2018-05-25T08:50:08.599Z,4.47
2018-05-25T08:52:36.058Z,5.40
2018-05-25T08:55:04.313Z,5.97
2018-05-25T08:57:32.479Z,5.68
2018-05-25T08:59:59.926Z,4.80
2018-05-25T09:02:27.370Z,4.20
2018-05-25T09:04:54.813Z,4.03
2018-05-25T09:07:22.262Z,3.97
2018-05-25T09:09:49.720Z,3.97
2018-05-25T09:12:17.210Z,3.70
2018-05-25T09:14:44.638Z,4.40
2018-05-25T09:17:12.096Z,3.70
2018-05-25T09:19:39.526Z,3.75
2018-05-25T09:22:06.979Z,3.50
2018-05-25T09:24:34.409Z,4.30
2018-05-25T09:27:01.861Z,3.50
2018-05-25T09:29:29.303Z,4.70
2018-05-25T09:31:57.510Z,4.12
2018-05-25T09:34:26.369Z,3.70
2018-05-25T09:36:53.828Z,4.20
2018-05-25T09:39:21.275Z,3.80
2018-05-25T09:41:48.722Z,4.22
2018-05-25T09:44:16.163Z,3.40
2018-05-25T09:46:44.163Z,4.05
2018-05-25T09:49:11.594Z,3.90
2018-05-25T09:51:39.039Z,4.32
2018-05-25T09:54:06.479Z,4.60
2018-05-25T09:56:34.693Z,3.70
2018-05-25T09:59:03.176Z,4.07
2018-05-25T10:01:30.611Z,3.70
2018-05-25T10:03:58.059Z,3.70
2018-05-25T10:06:26.266Z,3.30
2018-05-25T10:08:53.706Z,3.50
2018-05-25T10:11:21.142Z,2.72
2018-05-25T10:13:48.591Z,3.20
2018-05-25T10:16:16.030Z,3.25
2018-05-25T10:18:44.118Z,3.10
2018-05-25T10:21:11.578Z,2.97
2018-05-25T10:23:39.013Z,2.72
2018-05-25T10:26:06.474Z,2.65
2018-05-25T10:28:34.673Z,2.60
2018-05-25T10:31:02.131Z,2.25
2018-05-25T10:33:29.579Z,3.80
2018-05-25T10:35:57.806Z,3.30
2018-05-25T10:38:25.244Z,3.90
2018-05-25T10:40:52.692Z,4.30
2018-05-25T10:43:20.131Z,5.00
2018-05-25T10:45:48.341Z,4.60
2018-05-25T10:48:15.782Z,4.32
2018-05-25T10:50:43.235Z,5.00
2018-05-25T10:53:10.666Z,5.10
2018-05-25T10:55:39.781Z,4.80
2018-05-25T10:58:07.209Z,4.90
2018-05-25T11:00:34.647Z,4.90
2018-05-25T11:03:02.862Z,4.60
2018-05-25T11:05:30.294Z,4.78
2018-05-25T11:07:57.734Z,4.50
2018-05-25T11:10:25.165Z,4.90
2018-05-25T11:12:52.611Z,4.90
2018-05-25T11:15:20.051Z,4.53
2018-05-25T11:17:48.273Z,3.27
2018-05-25T11:20:15.711Z,3.17
2018-05-25T11:22:43.154Z,2.60
2018-05-25T11:25:10.603Z,3.20
2018-05-25T11:39:54.581Z,2.42
2018-05-25T11:42:22.900Z,2.73
2018-05-25T11:44:51.090Z,3.23
2018-05-25T11:47:18.526Z,3.27
2018-05-25T11:49:45.983Z,3.40
2018-05-25T11:52:14.362Z,3.30
2018-05-25T11:54:41.807Z,3.30
2018-05-25T11:57:09.250Z,4.10
2018-05-25T11:59:36.685Z,3.20
2018-05-25T12:02:04.898Z,3.03
2018-05-25T12:04:32.339Z,3.40
2018-05-25T12:06:59.786Z,4.03
2018-05-25T12:09:27.223Z,3.40
2018-05-25T12:11:55.440Z,3.23
2018-05-25T12:14:23.699Z,3.00
2018-05-25T12:16:51.130Z,3.20
2018-05-25T12:19:18.571Z,2.37
2018-05-25T12:21:46.010Z,2.40
2018-05-25T12:24:13.441Z,2.90
2018-05-25T12:26:40.891Z,2.60
2018-05-25T12:29:08.321Z,2.77
2018-05-25T12:31:35.767Z,2.10
2018-05-25T12:34:03.198Z,2.07
2018-05-25T12:36:31.428Z,2.73
2018-05-25T12:38:58.886Z,2.43
2018-05-25T12:41:27.101Z,3.30
2018-05-25T12:43:54.539Z,2.80
2018-05-25T12:46:21.977Z,2.70
2018-05-25T12:48:49.422Z,2.97
2018-05-25T12:51:16.862Z,2.97
2018-05-25T12:53:44.297Z,2.30
2018-05-25T12:56:12.497Z,2.40
2018-05-25T12:58:40.711Z,2.47
2018-05-25T13:01:08.155Z,2.40
2018-05-25T13:03:35.614Z,2.60
2018-05-25T13:06:03.033Z,2.53
2018-05-25T13:08:31.247Z,2.93
2018-05-25T13:10:59.460Z,2.65
2018-05-25T13:13:26.907Z,2.45
2018-05-25T13:15:54.354Z,2.28
2018-05-25T13:18:21.795Z,2.70
2018-05-25T13:20:49.991Z,2.83
2018-05-25T13:23:18.195Z,2.70
2018-05-25T13:25:46.402Z,2.40
2018-05-25T13:28:15.297Z,2.50
2018-05-25T13:30:43.489Z,2.27
2018-05-25T13:33:10.943Z,2.90
2018-05-25T13:43:00.130Z,2.40
2018-05-25T13:45:27.571Z,2.40
2018-05-25T13:47:55.787Z,2.17
2018-05-25T13:50:23.982Z,2.90
2018-05-25T13:52:52.186Z,2.50
2018-05-25T13:55:20.391Z,2.97
2018-05-25T13:57:47.825Z,2.67
2018-05-25T14:00:15.267Z,3.20
2018-05-25T14:02:42.706Z,2.40
2018-05-25T14:05:10.906Z,2.43
2018-05-25T14:07:39.125Z,3.27
2018-05-25T14:10:07.327Z,2.00
2018-05-25T14:12:34.771Z,2.50
2018-05-25T14:15:02.207Z,2.50
2018-05-25T14:17:29.641Z,2.60
2018-05-25T14:19:57.082Z,2.83
2018-05-25T14:22:24.521Z,3.03
2018-05-25T14:24:52.727Z,2.63
2018-05-25T14:27:20.939Z,2.97
2018-05-25T14:29:48.379Z,2.60
2018-05-25T14:32:16.520Z,2.27
2018-05-25T14:34:43.955Z,2.67
2018-05-25T14:37:11.399Z,2.37
2018-05-25T14:39:38.838Z,2.30
2018-05-25T14:42:07.061Z,2.17
2018-05-25T14:44:34.493Z,2.67
2018-05-25T14:47:01.926Z,2.13
2018-05-25T14:49:29.371Z,2.27
2018-05-25T14:51:56.807Z,2.03
2018-05-25T14:54:24.250Z,2.00
2018-05-25T14:56:52.463Z,2.17
2018-05-25T14:59:19.906Z,2.13
2018-05-25T15:01:47.346Z,2.13
2018-05-25T15:04:14.803Z,2.20
2018-05-25T15:06:42.904Z,2.20
2018-05-25T15:09:10.634Z,2.17
2018-05-25T15:11:38.081Z,2.23
2018-05-25T15:14:05.529Z,2.30
2018-05-25T15:16:33.726Z,2.00
2018-05-25T15:19:01.940Z,2.77
2018-05-25T15:21:30.140Z,2.23
2018-05-25T15:23:57.581Z,2.10
2018-05-25T15:26:25.019Z,2.43
2018-05-25T15:28:52.458Z,2.07
2018-05-25T15:31:19.894Z,2.20
2018-05-25T15:33:47.337Z,2.20
2018-05-25T15:36:15.540Z,2.70
2018-05-25T15:38:43.741Z,2.40
2018-05-25T15:41:11.174Z,1.93
2018-05-25T15:43:38.623Z,1.97
2018-05-25T15:46:06.062Z,2.33
2018-05-25T15:48:33.503Z,1.90
2018-05-25T15:51:00.942Z,1.90
2018-05-25T15:53:30.459Z,2.27
2018-05-25T15:55:59.549Z,2.30
2018-05-25T15:58:26.990Z,2.33
2018-05-25T16:00:54.421Z,2.30
2018-05-25T16:03:22.135Z,2.40
2018-05-25T16:05:49.563Z,2.10
2018-05-25T16:08:17.661Z,3.00
2018-05-25T16:10:45.115Z,3.20
2018-05-25T16:13:12.546Z,3.45
2018-05-25T16:15:39.986Z,4.32
2018-05-25T16:18:07.431Z,3.75
2018-05-25T16:20:34.882Z,4.10
2018-05-25T16:23:02.323Z,3.80
2018-05-25T16:25:29.782Z,3.90
2018-05-25T16:27:57.210Z,3.65
2018-05-25T16:30:24.654Z,3.78
2018-05-25T16:32:52.869Z,3.40
2018-05-25T16:35:20.324Z,4.10
2018-05-25T16:37:48.775Z,3.87
2018-05-25T16:40:16.219Z,3.80
2018-05-25T16:42:44.442Z,3.60
2018-05-25T16:45:11.945Z,3.12
2018-05-25T16:47:39.410Z,3.95
2018-05-25T16:50:06.889Z,3.70
2018-05-25T16:52:35.895Z,3.60
2018-05-25T16:55:03.911Z,3.80
2018-05-25T16:57:32.206Z,3.80
2018-05-25T16:59:59.660Z,3.90
2018-05-25T17:02:27.867Z,3.50
2018-05-25T17:04:56.084Z,3.93
2018-05-25T17:07:23.522Z,3.90
2018-05-25T17:09:50.967Z,3.83
2018-05-25T17:12:18.418Z,4.10
2018-05-25T17:14:45.854Z,3.87
2018-05-25T17:17:13.298Z,3.70
2018-05-25T17:19:40.729Z,3.60
2018-05-25T17:22:08.194Z,3.80
2018-05-25T17:24:35.625Z,3.83
2018-05-25T17:27:03.063Z,3.45
2018-05-25T17:29:30.504Z,3.55
2018-05-25T17:31:57.933Z,3.70
2018-05-25T17:34:25.374Z,3.35
2018-05-25T17:36:52.814Z,3.30
2018-05-25T17:39:21.022Z,3.60
2018-05-25T17:41:49.899Z,3.10
2018-05-25T17:44:17.354Z,3.30
2018-05-25T17:46:44.803Z,3.00
2018-05-25T17:49:12.262Z,2.70
2018-05-25T17:51:40.458Z,3.10
2018-05-25T17:54:07.917Z,2.90
2018-05-25T17:56:35.347Z,2.83
2018-05-25T17:59:02.786Z,2.60
2018-05-25T18:01:31.063Z,3.00
2018-05-25T18:03:58.500Z,2.87
2018-05-25T18:06:26.703Z,2.93
2018-05-25T18:08:54.919Z,3.00
2018-05-25T18:11:22.636Z,2.80
2018-05-25T18:13:50.103Z,2.97
2018-05-25T18:16:17.531Z,2.90
2018-05-25T18:18:44.965Z,2.80
2018-05-25T18:21:12.409Z,2.60
2018-05-25T18:23:40.615Z,2.90
2018-05-25T18:26:08.826Z,3.30
2018-05-25T18:28:36.259Z,3.10
2018-05-25T18:31:03.694Z,2.70
2018-05-25T18:33:31.130Z,2.80
2018-05-25T18:35:58.570Z,2.97
2018-05-25T18:38:26.005Z,3.20
2018-05-25T18:40:53.462Z,3.20
2018-05-25T18:43:20.901Z,3.13
2018-05-25T18:45:48.338Z,3.30
2018-05-25T18:48:15.787Z,4.07
2018-05-25T18:50:43.236Z,3.65
2018-05-25T18:53:10.678Z,3.10
2018-05-25T18:55:38.140Z,3.00
2018-05-25T18:58:06.351Z,3.00
2018-05-25T19:00:33.792Z,3.30
2018-05-25T19:03:01.957Z,3.40
2018-05-25T19:05:29.395Z,3.67
2018-05-25T19:07:56.835Z,3.30
2018-05-25T19:10:25.316Z,3.10
2018-05-25T19:12:52.734Z,3.50
2018-05-25T19:15:20.183Z,3.50
2018-05-25T19:17:47.630Z,3.28
2018-05-25T19:20:15.081Z,3.50
2018-05-25T19:22:43.295Z,3.20
2018-05-25T19:25:10.743Z,3.90
2018-05-25T19:27:38.954Z,3.50
2018-05-25T19:30:07.163Z,3.20
2018-05-25T19:32:34.615Z,3.90
2018-05-25T19:35:02.059Z,3.60
2018-05-25T19:37:29.498Z,3.60
2018-05-25T19:39:57.715Z,3.70
2018-05-25T19:42:25.917Z,3.95
2018-05-25T19:44:53.388Z,3.80
2018-05-25T19:47:20.799Z,4.35
2018-05-25T19:49:48.239Z,6.80
2018-05-25T19:52:16.446Z,6.05
2018-05-25T19:54:44.669Z,5.60
2018-05-25T19:57:12.119Z,4.70
2018-05-25T19:59:39.545Z,4.53
2018-05-25T20:02:06.998Z,4.50
2018-05-25T20:04:35.208Z,4.75
2018-05-25T20:07:03.431Z,5.10
2018-05-25T20:09:30.881Z,4.87
2018-05-25T20:11:59.091Z,4.47
2018-05-25T20:14:27.313Z,4.90
2018-05-25T20:16:54.750Z,4.95
2018-05-25T20:19:22.204Z,4.80
2018-05-25T20:21:49.651Z,4.30
2018-05-25T20:24:17.107Z,4.07
2018-05-25T20:26:45.315Z,4.62
2018-05-25T20:29:13.527Z,4.93
2018-05-25T20:31:40.970Z,5.00
2018-05-25T20:34:08.407Z,4.60
2018-05-25T20:36:35.846Z,4.70
2018-05-25T20:39:03.282Z,4.90
2018-05-25T20:41:31.745Z,4.82
2018-05-25T20:43:59.963Z,4.65
2018-05-25T20:46:27.403Z,4.65
2018-05-25T20:48:54.850Z,4.80
2018-05-25T20:51:22.304Z,5.00
2018-05-25T20:53:50.507Z,4.80
2018-05-25T20:56:18.707Z,6.28
2018-05-25T20:58:46.917Z,5.70
2018-05-25T21:01:14.360Z,6.67
2018-05-25T21:03:41.808Z,5.97
2018-05-25T21:06:09.241Z,6.20
2018-05-25T21:08:38.661Z,6.57
2018-05-25T21:11:06.078Z,6.03
2018-05-25T21:13:33.519Z,6.70
2018-05-25T21:16:00.965Z,5.83
2018-05-25T21:18:28.406Z,5.80
2018-05-25T21:20:55.850Z,5.80
2018-05-25T21:23:23.296Z,6.63
2018-05-25T21:25:50.738Z,5.90
2018-05-25T21:28:18.938Z,5.47
2018-05-25T21:30:47.148Z,5.23
2018-05-25T21:33:15.350Z,5.60
2018-05-25T21:35:43.556Z,5.33
2018-05-25T21:38:10.986Z,6.40
2018-05-25T21:40:38.430Z,5.37
2018-05-25T21:43:06.763Z,7.07
2018-05-25T21:45:34.208Z,6.60
2018-05-25T21:48:01.642Z,6.60
2018-05-25T21:50:29.091Z,6.43
2018-05-25T21:52:56.522Z,6.63
2018-05-25T21:55:23.967Z,7.80
2018-05-25T21:57:51.404Z,6.80
2018-05-25T22:00:19.615Z,6.40
2018-05-25T23:29:04.907Z,6.43
2018-05-25T23:36:27.119Z,7.00
2018-05-25T23:38:55.335Z,6.57
2018-05-25T23:41:22.775Z,5.60
2018-05-25T23:43:53.080Z,6.00
2018-05-25T23:46:21.096Z,6.37
2018-05-25T23:48:48.573Z,8.00
2018-05-25T23:51:15.988Z,7.63
2018-05-25T23:53:43.426Z,7.10
2018-05-25T23:56:10.908Z,7.25
2018-05-25T23:58:38.359Z,7.37
